sensor_id;sensor_type;location;lat;lon;timestamp;temperature;humidity
36654;DHT22;22650;49.350;20.898;2022-11-04T00:02:29;3.50;99.90
36654;DHT22;22650;49.350;20.898;2022-11-04T00:05:03;3.50;99.90
36654;DHT22;22650;49.350;20.898;2022-11-04T00:07:36;3.50;99.90
36654;DHT22;22650;49.350;20.898;2022-11-04T00:10:27;3.50;99.90
36654;DHT22;22650;49.350;20.898;2022-11-04T00:13:14;3.50;99.90
36654;DHT22;22650;49.350;20.898;2022-11-04T00:15:49;3.50;99.90
36654;DHT22;22650;49.350;20.898;2022-11-04T00:18:40;3.60;99.90
36654;DHT22;22650;49.350;20.898;2022-11-04T00:21:13;3.60;99.90
36654;DHT22;22650;49.350;20.898;2022-11-04T00:24:05;3.60;99.90
36654;DHT22;22650;49.350;20.898;2022-11-04T00:26:56;3.60;99.90
36654;DHT22;22650;49.350;20.898;2022-11-04T00:29:47;3.60;99.90
36654;DHT22;22650;49.350;20.898;2022-11-04T00:32:22;3.60;99.90
36654;DHT22;22650;49.350;20.898;2022-11-04T00:35:13;3.60;99.90
36654;DHT22;22650;49.350;20.898;2022-11-04T00:37:46;3.60;99.90
36654;DHT22;22650;49.350;20.898;2022-11-04T00:40:19;3.60;99.90
36654;DHT22;22650;49.350;20.898;2022-11-04T00:42:53;3.70;99.90
36654;DHT22;22650;49.350;20.898;2022-11-04T00:45:26;3.80;99.90
36654;DHT22;22650;49.350;20.898;2022-11-04T00:48:01;3.90;99.90
36654;DHT22;22650;49.350;20.898;2022-11-04T00:50:35;3.90;99.90
36654;DHT22;22650;49.350;20.898;2022-11-04T00:53:08;4.00;99.90
36654;DHT22;22650;49.350;20.898;2022-11-04T00:55:42;4.10;99.90
36654;DHT22;22650;49.350;20.898;2022-11-04T00:58:15;4.20;99.90
36654;DHT22;22650;49.350;20.898;2022-11-04T01:00:49;4.20;99.90
36654;DHT22;22650;49.350;20.898;2022-11-04T01:03:24;4.20;99.90
36654;DHT22;22650;49.350;20.898;2022-11-04T01:05:57;4.30;99.90
36654;DHT22;22650;49.350;20.898;2022-11-04T01:08:30;4.30;99.90
36654;DHT22;22650;49.350;20.898;2022-11-04T01:11:06;4.40;99.90
36654;DHT22;22650;49.350;20.898;2022-11-04T01:13:40;4.50;99.90
36654;DHT22;22650;49.350;20.898;2022-11-04T01:16:13;4.60;99.90
36654;DHT22;22650;49.350;20.898;2022-11-04T01:18:49;4.70;99.90
36654;DHT22;22650;49.350;20.898;2022-11-04T01:21:22;4.80;99.90
36654;DHT22;22650;49.350;20.898;2022-11-04T01:23:56;4.90;99.90
36654;DHT22;22650;49.350;20.898;2022-11-04T01:26:29;5.00;99.90
36654;DHT22;22650;49.350;20.898;2022-11-04T01:29:03;5.10;99.90
36654;DHT22;22650;49.350;20.898;2022-11-04T01:31:36;5.10;99.90
36654;DHT22;22650;49.350;20.898;2022-11-04T01:34:11;5.20;99.90
36654;DHT22;22650;49.350;20.898;2022-11-04T01:36:44;5.20;99.90
36654;DHT22;22650;49.350;20.898;2022-11-04T01:39:18;5.20;99.90
36654;DHT22;22650;49.350;20.898;2022-11-04T01:41:51;5.20;99.90
36654;DHT22;22650;49.350;20.898;2022-11-04T01:44:51;5.10;99.90
36654;DHT22;22650;49.350;20.898;2022-11-04T01:47:29;5.10;99.90
36654;DHT22;22650;49.350;20.898;2022-11-04T01:50:08;5.10;99.90
36654;DHT22;22650;49.350;20.898;2022-11-04T01:52:46;5.10;99.90
36654;DHT22;22650;49.350;20.898;2022-11-04T01:55:23;5.10;99.90
36654;DHT22;22650;49.350;20.898;2022-11-04T01:58:02;5.10;99.90
36654;DHT22;22650;49.350;20.898;2022-11-04T02:00:37;5.00;99.90
36654;DHT22;22650;49.350;20.898;2022-11-04T02:03:14;5.00;99.90
36654;DHT22;22650;49.350;20.898;2022-11-04T02:05:51;5.00;99.90
36654;DHT22;22650;49.350;20.898;2022-11-04T02:08:25;5.00;99.90
36654;DHT22;22650;49.350;20.898;2022-11-04T02:11:01;5.00;99.90
36654;DHT22;22650;49.350;20.898;2022-11-04T02:13:35;5.00;99.90
36654;DHT22;22650;49.350;20.898;2022-11-04T02:16:10;5.00;99.90
36654;DHT22;22650;49.350;20.898;2022-11-04T02:18:54;5.00;99.90
36654;DHT22;22650;49.350;20.898;2022-11-04T02:21:55;4.90;99.90
36654;DHT22;22650;49.350;20.898;2022-11-04T02:27:40;4.90;99.90
36654;DHT22;22650;49.350;20.898;2022-11-04T02:30:17;4.90;99.90
36654;DHT22;22650;49.350;20.898;2022-11-04T02:33:12;4.90;99.90
36654;DHT22;22650;49.350;20.898;2022-11-04T02:35:56;4.90;99.90
36654;DHT22;22650;49.350;20.898;2022-11-04T02:38:36;4.80;99.90
36654;DHT22;22650;49.350;20.898;2022-11-04T02:41:16;4.80;99.90
36654;DHT22;22650;49.350;20.898;2022-11-04T02:43:59;4.80;99.90
36654;DHT22;22650;49.350;20.898;2022-11-04T02:46:37;4.80;99.90
36654;DHT22;22650;49.350;20.898;2022-11-04T02:49:13;4.80;99.90
36654;DHT22;22650;49.350;20.898;2022-11-04T02:51:51;4.80;99.90
36654;DHT22;22650;49.350;20.898;2022-11-04T02:54:30;4.90;99.90
36654;DHT22;22650;49.350;20.898;2022-11-04T02:57:07;4.80;99.90
36654;DHT22;22650;49.350;20.898;2022-11-04T02:59:46;4.80;99.90
36654;DHT22;22650;49.350;20.898;2022-11-04T03:02:26;4.80;99.90
36654;DHT22;22650;49.350;20.898;2022-11-04T03:05:03;4.80;99.90
36654;DHT22;22650;49.350;20.898;2022-11-04T03:07:40;4.80;99.90
36654;DHT22;22650;49.350;20.898;2022-11-04T03:10:17;4.80;99.90
36654;DHT22;22650;49.350;20.898;2022-11-04T03:12:53;4.80;99.90
36654;DHT22;22650;49.350;20.898;2022-11-04T03:15:30;4.80;99.90
36654;DHT22;22650;49.350;20.898;2022-11-04T03:18:14;4.80;99.90
36654;DHT22;22650;49.350;20.898;2022-11-04T03:20:50;4.90;99.90
36654;DHT22;22650;49.350;20.898;2022-11-04T03:23:25;4.90;99.90
36654;DHT22;22650;49.350;20.898;2022-11-04T03:26:08;5.00;99.90
36654;DHT22;22650;49.350;20.898;2022-11-04T03:28:48;5.00;99.90
36654;DHT22;22650;49.350;20.898;2022-11-04T03:31:31;5.10;99.90
36654;DHT22;22650;49.350;20.898;2022-11-04T03:34:10;5.10;99.90
36654;DHT22;22650;49.350;20.898;2022-11-04T03:36:44;5.10;99.90
36654;DHT22;22650;49.350;20.898;2022-11-04T03:39:17;5.10;99.90
36654;DHT22;22650;49.350;20.898;2022-11-04T03:41:54;5.10;99.90
36654;DHT22;22650;49.350;20.898;2022-11-04T03:44:28;5.10;99.90
36654;DHT22;22650;49.350;20.898;2022-11-04T03:47:02;5.10;99.90
36654;DHT22;22650;49.350;20.898;2022-11-04T03:49:37;5.10;99.90
36654;DHT22;22650;49.350;20.898;2022-11-04T03:52:11;5.20;99.90
36654;DHT22;22650;49.350;20.898;2022-11-04T03:54:45;5.20;99.90
36654;DHT22;22650;49.350;20.898;2022-11-04T03:57:36;5.10;99.90
36654;DHT22;22650;49.350;20.898;2022-11-04T04:00:13;5.20;99.90
36654;DHT22;22650;49.350;20.898;2022-11-04T04:03:01;5.20;99.90
36654;DHT22;22650;49.350;20.898;2022-11-04T04:05:42;5.20;99.90
36654;DHT22;22650;49.350;20.898;2022-11-04T04:08:24;5.10;99.90
36654;DHT22;22650;49.350;20.898;2022-11-04T04:11:06;5.10;99.90
36654;DHT22;22650;49.350;20.898;2022-11-04T04:13:45;5.10;99.90
36654;DHT22;22650;49.350;20.898;2022-11-04T04:16:27;5.10;99.90
36654;DHT22;22650;49.350;20.898;2022-11-04T04:19:04;5.10;99.90
36654;DHT22;22650;49.350;20.898;2022-11-04T04:21:43;5.00;99.90
36654;DHT22;22650;49.350;20.898;2022-11-04T04:24:20;5.00;99.90
36654;DHT22;22650;49.350;20.898;2022-11-04T04:27:25;4.90;99.90
36654;DHT22;22650;49.350;20.898;2022-11-04T04:30:05;4.90;99.90
36654;DHT22;22650;49.350;20.898;2022-11-04T04:32:42;4.80;99.90
36654;DHT22;22650;49.350;20.898;2022-11-04T04:35:16;4.80;99.90
36654;DHT22;22650;49.350;20.898;2022-11-04T04:38:13;4.70;99.90
36654;DHT22;22650;49.350;20.898;2022-11-04T04:41:10;4.70;99.90
36654;DHT22;22650;49.350;20.898;2022-11-04T04:44:02;4.60;99.90
36654;DHT22;22650;49.350;20.898;2022-11-04T04:46:55;4.50;99.90
36654;DHT22;22650;49.350;20.898;2022-11-04T04:49:29;4.50;99.90
36654;DHT22;22650;49.350;20.898;2022-11-04T04:52:06;4.40;99.90
36654;DHT22;22650;49.350;20.898;2022-11-04T04:54:41;4.40;99.90
36654;DHT22;22650;49.350;20.898;2022-11-04T04:57:16;4.40;99.90
36654;DHT22;22650;49.350;20.898;2022-11-04T04:59:49;4.40;99.90
36654;DHT22;22650;49.350;20.898;2022-11-04T05:02:23;4.40;99.90
36654;DHT22;22650;49.350;20.898;2022-11-04T05:04:56;4.30;99.90
36654;DHT22;22650;49.350;20.898;2022-11-04T05:07:30;4.30;99.90
36654;DHT22;22650;49.350;20.898;2022-11-04T05:10:07;4.40;99.90
36654;DHT22;22650;49.350;20.898;2022-11-04T05:12:41;4.30;99.90
36654;DHT22;22650;49.350;20.898;2022-11-04T05:15:33;4.40;99.90
36654;DHT22;22650;49.350;20.898;2022-11-04T05:18:06;4.40;99.90
36654;DHT22;22650;49.350;20.898;2022-11-04T05:20:40;4.40;99.90
36654;DHT22;22650;49.350;20.898;2022-11-04T05:23:13;4.40;99.90
36654;DHT22;22650;49.350;20.898;2022-11-04T05:25:48;4.40;99.90
36654;DHT22;22650;49.350;20.898;2022-11-04T05:28:22;4.50;99.90
36654;DHT22;22650;49.350;20.898;2022-11-04T05:30:55;4.50;99.90
36654;DHT22;22650;49.350;20.898;2022-11-04T05:33:29;4.50;99.90
36654;DHT22;22650;49.350;20.898;2022-11-04T05:36:06;4.50;99.90
36654;DHT22;22650;49.350;20.898;2022-11-04T05:38:40;4.50;99.90
36654;DHT22;22650;49.350;20.898;2022-11-04T05:41:15;4.50;99.90
36654;DHT22;22650;49.350;20.898;2022-11-04T05:43:58;4.50;99.90
36654;DHT22;22650;49.350;20.898;2022-11-04T05:46:32;4.50;99.90
36654;DHT22;22650;49.350;20.898;2022-11-04T05:49:05;4.60;99.90
36654;DHT22;22650;49.350;20.898;2022-11-04T05:51:39;4.60;99.90
36654;DHT22;22650;49.350;20.898;2022-11-04T05:54:12;4.60;99.90
36654;DHT22;22650;49.350;20.898;2022-11-04T05:56:47;4.60;99.90
36654;DHT22;22650;49.350;20.898;2022-11-04T05:59:20;4.60;99.90
36654;DHT22;22650;49.350;20.898;2022-11-04T06:01:54;4.70;99.90
36654;DHT22;22650;49.350;20.898;2022-11-04T06:04:27;4.70;99.90
36654;DHT22;22650;49.350;20.898;2022-11-04T06:07:01;4.80;99.90
36654;DHT22;22650;49.350;20.898;2022-11-04T06:09:34;4.80;99.90
36654;DHT22;22650;49.350;20.898;2022-11-04T06:12:14;4.90;99.90
36654;DHT22;22650;49.350;20.898;2022-11-04T06:14:47;4.90;99.90
36654;DHT22;22650;49.350;20.898;2022-11-04T06:17:21;4.90;99.90
36654;DHT22;22650;49.350;20.898;2022-11-04T06:19:54;5.00;99.90
36654;DHT22;22650;49.350;20.898;2022-11-04T06:22:27;5.00;99.90
36654;DHT22;22650;49.350;20.898;2022-11-04T06:25:01;5.10;99.90
36654;DHT22;22650;49.350;20.898;2022-11-04T06:27:35;5.10;99.90
36654;DHT22;22650;49.350;20.898;2022-11-04T06:30:10;5.20;99.90
36654;DHT22;22650;49.350;20.898;2022-11-04T06:32:43;5.20;99.90
36654;DHT22;22650;49.350;20.898;2022-11-04T06:35:17;5.20;99.90
36654;DHT22;22650;49.350;20.898;2022-11-04T06:37:50;5.30;99.90
36654;DHT22;22650;49.350;20.898;2022-11-04T06:40:23;5.40;99.90
36654;DHT22;22650;49.350;20.898;2022-11-04T06:42:58;5.40;99.90
36654;DHT22;22650;49.350;20.898;2022-11-04T06:45:32;5.50;99.90
36654;DHT22;22650;49.350;20.898;2022-11-04T06:48:06;5.50;99.90
36654;DHT22;22650;49.350;20.898;2022-11-04T06:50:39;5.60;99.90
36654;DHT22;22650;49.350;20.898;2022-11-04T06:53:12;5.70;99.90
36654;DHT22;22650;49.350;20.898;2022-11-04T06:55:46;5.70;99.90
36654;DHT22;22650;49.350;20.898;2022-11-04T06:58:20;5.80;99.90
36654;DHT22;22650;49.350;20.898;2022-11-04T07:00:54;5.90;99.90
36654;DHT22;22650;49.350;20.898;2022-11-04T07:03:27;6.00;99.90
36654;DHT22;22650;49.350;20.898;2022-11-04T07:06:05;6.10;99.90
36654;DHT22;22650;49.350;20.898;2022-11-04T07:08:38;6.10;99.90
36654;DHT22;22650;49.350;20.898;2022-11-04T07:11:12;6.20;99.90
36654;DHT22;22650;49.350;20.898;2022-11-04T07:13:48;6.30;99.90
36654;DHT22;22650;49.350;20.898;2022-11-04T07:16:21;6.40;99.90
36654;DHT22;22650;49.350;20.898;2022-11-04T07:18:54;6.60;99.90
36654;DHT22;22650;49.350;20.898;2022-11-04T07:21:28;6.70;99.90
36654;DHT22;22650;49.350;20.898;2022-11-04T07:24:01;6.80;99.90
36654;DHT22;22650;49.350;20.898;2022-11-04T07:26:35;6.90;99.90
36654;DHT22;22650;49.350;20.898;2022-11-04T07:29:09;7.10;99.90
36654;DHT22;22650;49.350;20.898;2022-11-04T07:31:43;7.20;99.90
36654;DHT22;22650;49.350;20.898;2022-11-04T07:34:17;7.40;99.90
36654;DHT22;22650;49.350;20.898;2022-11-04T07:36:51;7.50;99.90
36654;DHT22;22650;49.350;20.898;2022-11-04T07:39:24;7.80;99.90
36654;DHT22;22650;49.350;20.898;2022-11-04T07:41:57;7.90;99.90
36654;DHT22;22650;49.350;20.898;2022-11-04T07:44:32;8.10;99.90
36654;DHT22;22650;49.350;20.898;2022-11-04T07:47:09;8.20;99.90
36654;DHT22;22650;49.350;20.898;2022-11-04T07:49:42;8.40;99.90
36654;DHT22;22650;49.350;20.898;2022-11-04T07:52:16;8.60;99.90
36654;DHT22;22650;49.350;20.898;2022-11-04T07:54:49;8.70;99.90
36654;DHT22;22650;49.350;20.898;2022-11-04T07:57:23;8.80;99.90
36654;DHT22;22650;49.350;20.898;2022-11-04T07:59:57;9.00;99.90
36654;DHT22;22650;49.350;20.898;2022-11-04T08:02:31;9.00;99.90
36654;DHT22;22650;49.350;20.898;2022-11-04T08:05:07;9.10;99.90
36654;DHT22;22650;49.350;20.898;2022-11-04T08:07:40;9.20;99.90
36654;DHT22;22650;49.350;20.898;2022-11-04T08:10:14;9.30;99.90
36654;DHT22;22650;49.350;20.898;2022-11-04T08:12:48;9.40;99.90
36654;DHT22;22650;49.350;20.898;2022-11-04T08:15:24;9.50;99.90
36654;DHT22;22650;49.350;20.898;2022-11-04T08:17:57;9.70;99.90
36654;DHT22;22650;49.350;20.898;2022-11-04T08:20:31;9.90;99.90
36654;DHT22;22650;49.350;20.898;2022-11-04T08:23:04;10.20;99.90
36654;DHT22;22650;49.350;20.898;2022-11-04T08:25:39;10.50;99.90
36654;DHT22;22650;49.350;20.898;2022-11-04T08:28:12;10.70;99.90
36654;DHT22;22650;49.350;20.898;2022-11-04T08:30:55;11.00;99.90
36654;DHT22;22650;49.350;20.898;2022-11-04T08:33:30;11.30;99.90
36654;DHT22;22650;49.350;20.898;2022-11-04T08:36:05;11.60;99.90
36654;DHT22;22650;49.350;20.898;2022-11-04T08:38:40;11.80;99.90
36654;DHT22;22650;49.350;20.898;2022-11-04T08:41:15;11.90;99.90
36654;DHT22;22650;49.350;20.898;2022-11-04T08:43:48;12.10;99.90
36654;DHT22;22650;49.350;20.898;2022-11-04T08:46:23;12.30;99.90
36654;DHT22;22650;49.350;20.898;2022-11-04T08:48:56;12.50;99.90
36654;DHT22;22650;49.350;20.898;2022-11-04T08:51:32;12.70;99.90
36654;DHT22;22650;49.350;20.898;2022-11-04T08:54:06;12.80;99.90
36654;DHT22;22650;49.350;20.898;2022-11-04T08:56:39;12.90;99.90
36654;DHT22;22650;49.350;20.898;2022-11-04T08:59:13;13.10;99.90
36654;DHT22;22650;49.350;20.898;2022-11-04T09:01:47;13.20;99.90
36654;DHT22;22650;49.350;20.898;2022-11-04T09:04:21;13.30;99.90
36654;DHT22;22650;49.350;20.898;2022-11-04T09:06:54;13.50;99.90
36654;DHT22;22650;49.350;20.898;2022-11-04T09:09:28;13.70;99.90
36654;DHT22;22650;49.350;20.898;2022-11-04T09:12:01;13.70;99.90
36654;DHT22;22650;49.350;20.898;2022-11-04T09:14:34;13.70;99.90
36654;DHT22;22650;49.350;20.898;2022-11-04T09:17:09;13.80;99.90
36654;DHT22;22650;49.350;20.898;2022-11-04T09:19:42;13.80;99.90
36654;DHT22;22650;49.350;20.898;2022-11-04T09:22:16;13.90;99.90
36654;DHT22;22650;49.350;20.898;2022-11-04T09:24:49;14.00;99.90
36654;DHT22;22650;49.350;20.898;2022-11-04T09:27:23;14.00;99.90
36654;DHT22;22650;49.350;20.898;2022-11-04T09:29:56;13.90;99.90
36654;DHT22;22650;49.350;20.898;2022-11-04T09:32:30;14.00;99.90
36654;DHT22;22650;49.350;20.898;2022-11-04T09:35:04;14.00;99.90
36654;DHT22;22650;49.350;20.898;2022-11-04T09:37:37;14.10;99.90
36654;DHT22;22650;49.350;20.898;2022-11-04T09:40:15;14.20;99.90
36654;DHT22;22650;49.350;20.898;2022-11-04T09:43:00;14.30;99.90
36654;DHT22;22650;49.350;20.898;2022-11-04T09:45:41;14.30;99.90
36654;DHT22;22650;49.350;20.898;2022-11-04T09:48:21;14.40;99.90
36654;DHT22;22650;49.350;20.898;2022-11-04T09:50:58;14.40;99.90
36654;DHT22;22650;49.350;20.898;2022-11-04T09:53:39;14.30;99.90
36654;DHT22;22650;49.350;20.898;2022-11-04T09:56:16;14.30;99.90
36654;DHT22;22650;49.350;20.898;2022-11-04T09:58:51;14.40;99.90
36654;DHT22;22650;49.350;20.898;2022-11-04T10:01:28;14.40;99.90
36654;DHT22;22650;49.350;20.898;2022-11-04T10:04:15;14.40;99.90
36654;DHT22;22650;49.350;20.898;2022-11-04T10:07:05;14.50;99.90
36654;DHT22;22650;49.350;20.898;2022-11-04T10:09:53;14.50;99.90
36654;DHT22;22650;49.350;20.898;2022-11-04T10:15:48;14.60;99.90
36654;DHT22;22650;49.350;20.898;2022-11-04T10:21:33;14.50;99.90
36654;DHT22;22650;49.350;20.898;2022-11-04T10:24:17;14.30;99.90
36654;DHT22;22650;49.350;20.898;2022-11-04T10:26:54;14.30;99.90
36654;DHT22;22650;49.350;20.898;2022-11-04T10:29:36;14.30;99.90
36654;DHT22;22650;49.350;20.898;2022-11-04T10:32:14;14.30;99.90
36654;DHT22;22650;49.350;20.898;2022-11-04T10:34:57;14.40;99.90
36654;DHT22;22650;49.350;20.898;2022-11-04T10:37:33;14.50;99.90
36654;DHT22;22650;49.350;20.898;2022-11-04T10:40:17;14.60;99.90
36654;DHT22;22650;49.350;20.898;2022-11-04T10:42:52;14.50;99.90
36654;DHT22;22650;49.350;20.898;2022-11-04T10:45:33;14.60;99.90
36654;DHT22;22650;49.350;20.898;2022-11-04T10:48:14;14.60;99.90
36654;DHT22;22650;49.350;20.898;2022-11-04T10:50:53;14.60;99.90
36654;DHT22;22650;49.350;20.898;2022-11-04T10:53:29;14.70;99.90
36654;DHT22;22650;49.350;20.898;2022-11-04T10:56:11;14.70;99.90
36654;DHT22;22650;49.350;20.898;2022-11-04T10:58:50;14.70;99.90
36654;DHT22;22650;49.350;20.898;2022-11-04T11:01:27;14.90;99.90
36654;DHT22;22650;49.350;20.898;2022-11-04T11:04:06;15.10;99.90
36654;DHT22;22650;49.350;20.898;2022-11-04T11:06:40;15.30;99.90
36654;DHT22;22650;49.350;20.898;2022-11-04T11:09:20;15.50;99.90
36654;DHT22;22650;49.350;20.898;2022-11-04T11:11:59;15.70;99.90
36654;DHT22;22650;49.350;20.898;2022-11-04T11:14:35;15.60;99.90
36654;DHT22;22650;49.350;20.898;2022-11-04T11:17:17;15.60;99.90
36654;DHT22;22650;49.350;20.898;2022-11-04T11:19:55;15.50;99.90
36654;DHT22;22650;49.350;20.898;2022-11-04T11:22:37;15.50;99.90
36654;DHT22;22650;49.350;20.898;2022-11-04T11:25:20;15.60;99.90
36654;DHT22;22650;49.350;20.898;2022-11-04T11:27:56;15.70;99.90
36654;DHT22;22650;49.350;20.898;2022-11-04T11:30:32;15.80;99.90
36654;DHT22;22650;49.350;20.898;2022-11-04T11:33:14;15.80;99.90
36654;DHT22;22650;49.350;20.898;2022-11-04T11:35:50;15.70;99.90
36654;DHT22;22650;49.350;20.898;2022-11-04T11:38:26;15.70;99.90
36654;DHT22;22650;49.350;20.898;2022-11-04T11:41:07;15.60;99.90
36654;DHT22;22650;49.350;20.898;2022-11-04T11:43:58;15.40;99.90
36654;DHT22;22650;49.350;20.898;2022-11-04T11:46:34;15.20;99.90
36654;DHT22;22650;49.350;20.898;2022-11-04T11:49:22;15.20;99.90
36654;DHT22;22650;49.350;20.898;2022-11-04T11:52:22;15.10;99.90
36654;DHT22;22650;49.350;20.898;2022-11-04T11:55:02;15.10;99.90
36654;DHT22;22650;49.350;20.898;2022-11-04T11:57:46;15.00;99.90
36654;DHT22;22650;49.350;20.898;2022-11-04T12:00:47;15.00;99.90
36654;DHT22;22650;49.350;20.898;2022-11-04T12:03:32;15.10;99.90
36654;DHT22;22650;49.350;20.898;2022-11-04T12:06:38;15.00;99.90
36654;DHT22;22650;49.350;20.898;2022-11-04T12:09:36;15.10;99.90
36654;DHT22;22650;49.350;20.898;2022-11-04T12:12:25;15.10;99.90
36654;DHT22;22650;49.350;20.898;2022-11-04T12:15:12;15.20;99.90
36654;DHT22;22650;49.350;20.898;2022-11-04T12:18:12;15.20;99.90
36654;DHT22;22650;49.350;20.898;2022-11-04T12:20:52;15.30;99.90
36654;DHT22;22650;49.350;20.898;2022-11-04T12:23:36;15.40;99.90
36654;DHT22;22650;49.350;20.898;2022-11-04T12:26:19;15.50;99.90
36654;DHT22;22650;49.350;20.898;2022-11-04T12:29:18;15.40;99.90
36654;DHT22;22650;49.350;20.898;2022-11-04T12:32:03;15.50;99.90
36654;DHT22;22650;49.350;20.898;2022-11-04T12:34:59;15.50;99.90
36654;DHT22;22650;49.350;20.898;2022-11-04T12:37:44;15.50;99.90
36654;DHT22;22650;49.350;20.898;2022-11-04T12:40:23;15.50;99.90
36654;DHT22;22650;49.350;20.898;2022-11-04T12:43:06;15.50;99.90
36654;DHT22;22650;49.350;20.898;2022-11-04T12:45:59;15.40;99.90
36654;DHT22;22650;49.350;20.898;2022-11-04T12:48:52;15.40;99.90
36654;DHT22;22650;49.350;20.898;2022-11-04T12:51:37;15.40;99.90
36654;DHT22;22650;49.350;20.898;2022-11-04T12:54:35;15.40;99.90
36654;DHT22;22650;49.350;20.898;2022-11-04T12:57:21;15.20;99.90
36654;DHT22;22650;49.350;20.898;2022-11-04T13:00:15;15.20;99.90
36654;DHT22;22650;49.350;20.898;2022-11-04T13:02:53;15.10;99.90
36654;DHT22;22650;49.350;20.898;2022-11-04T13:05:49;15.10;99.90
36654;DHT22;22650;49.350;20.898;2022-11-04T13:08:27;15.10;99.90
36654;DHT22;22650;49.350;20.898;2022-11-04T13:11:07;15.10;99.90
36654;DHT22;22650;49.350;20.898;2022-11-04T13:13:59;15.10;99.90
36654;DHT22;22650;49.350;20.898;2022-11-04T13:16:38;15.00;99.90
36654;DHT22;22650;49.350;20.898;2022-11-04T13:19:21;14.90;99.90
36654;DHT22;22650;49.350;20.898;2022-11-04T13:22:01;14.80;99.90
36654;DHT22;22650;49.350;20.898;2022-11-04T13:24:38;14.70;99.90
36654;DHT22;22650;49.350;20.898;2022-11-04T13:27:17;14.60;99.90
36654;DHT22;22650;49.350;20.898;2022-11-04T13:30:11;14.60;99.90
36654;DHT22;22650;49.350;20.898;2022-11-04T13:32:48;14.50;99.90
36654;DHT22;22650;49.350;20.898;2022-11-04T13:35:29;14.40;99.90
36654;DHT22;22650;49.350;20.898;2022-11-04T13:38:08;14.30;99.90
36654;DHT22;22650;49.350;20.898;2022-11-04T13:40:51;14.30;99.90
36654;DHT22;22650;49.350;20.898;2022-11-04T13:43:31;14.20;99.90
36654;DHT22;22650;49.350;20.898;2022-11-04T13:46:19;14.20;99.90
36654;DHT22;22650;49.350;20.898;2022-11-04T13:49:01;14.20;99.90
36654;DHT22;22650;49.350;20.898;2022-11-04T13:51:38;14.20;99.90
36654;DHT22;22650;49.350;20.898;2022-11-04T13:54:27;14.10;99.90
36654;DHT22;22650;49.350;20.898;2022-11-04T14:00:18;14.10;99.90
36654;DHT22;22650;49.350;20.898;2022-11-04T14:02:53;14.10;99.90
36654;DHT22;22650;49.350;20.898;2022-11-04T14:05:46;14.00;99.90
36654;DHT22;22650;49.350;20.898;2022-11-04T14:08:33;14.00;99.90
36654;DHT22;22650;49.350;20.898;2022-11-04T14:11:10;13.90;99.90
36654;DHT22;22650;49.350;20.898;2022-11-04T14:16:39;13.90;99.90
36654;DHT22;22650;49.350;20.898;2022-11-04T14:22:31;13.80;99.90
36654;DHT22;22650;49.350;20.898;2022-11-04T14:25:21;13.70;99.90
36654;DHT22;22650;49.350;20.898;2022-11-04T14:27:59;13.70;99.90
36654;DHT22;22650;49.350;20.898;2022-11-04T14:30:41;13.60;99.90
36654;DHT22;22650;49.350;20.898;2022-11-04T14:36:28;13.60;99.90
36654;DHT22;22650;49.350;20.898;2022-11-04T14:39:06;13.50;99.90
36654;DHT22;22650;49.350;20.898;2022-11-04T14:41:54;13.40;99.90
36654;DHT22;22650;49.350;20.898;2022-11-04T14:44:32;13.30;99.90
36654;DHT22;22650;49.350;20.898;2022-11-04T14:47:14;13.20;99.90
36654;DHT22;22650;49.350;20.898;2022-11-04T14:49:51;13.10;99.90
36654;DHT22;22650;49.350;20.898;2022-11-04T14:52:34;13.00;99.90
36654;DHT22;22650;49.350;20.898;2022-11-04T14:55:13;12.90;99.90
36654;DHT22;22650;49.350;20.898;2022-11-04T14:57:48;12.80;99.90
36654;DHT22;22650;49.350;20.898;2022-11-04T15:00:29;12.70;99.90
36654;DHT22;22650;49.350;20.898;2022-11-04T15:03:09;12.60;99.90
36654;DHT22;22650;49.350;20.898;2022-11-04T15:06:05;12.50;99.90
36654;DHT22;22650;49.350;20.898;2022-11-04T15:08:43;12.50;99.90
36654;DHT22;22650;49.350;20.898;2022-11-04T15:11:18;12.40;99.90
36654;DHT22;22650;49.350;20.898;2022-11-04T15:14:15;12.30;99.90
36654;DHT22;22650;49.350;20.898;2022-11-04T15:16:52;12.20;99.90
36654;DHT22;22650;49.350;20.898;2022-11-04T15:19:28;12.10;99.90
36654;DHT22;22650;49.350;20.898;2022-11-04T15:22:03;12.10;99.90
36654;DHT22;22650;49.350;20.898;2022-11-04T15:24:37;12.00;99.90
36654;DHT22;22650;49.350;20.898;2022-11-04T15:27:16;11.90;99.90
36654;DHT22;22650;49.350;20.898;2022-11-04T15:29:52;11.90;99.90
36654;DHT22;22650;49.350;20.898;2022-11-04T15:32:27;11.80;99.90
36654;DHT22;22650;49.350;20.898;2022-11-04T15:35:01;11.80;99.90
36654;DHT22;22650;49.350;20.898;2022-11-04T15:37:34;11.80;99.90
36654;DHT22;22650;49.350;20.898;2022-11-04T15:40:12;11.70;99.90
36654;DHT22;22650;49.350;20.898;2022-11-04T15:42:47;11.70;99.90
36654;DHT22;22650;49.350;20.898;2022-11-04T15:45:34;11.70;99.90
36654;DHT22;22650;49.350;20.898;2022-11-04T15:48:27;11.60;99.90
36654;DHT22;22650;49.350;20.898;2022-11-04T15:51:14;11.60;99.90
36654;DHT22;22650;49.350;20.898;2022-11-04T15:53:51;11.50;99.90
36654;DHT22;22650;49.350;20.898;2022-11-04T15:56:27;11.50;99.90
36654;DHT22;22650;49.350;20.898;2022-11-04T15:59:01;11.40;99.90
36654;DHT22;22650;49.350;20.898;2022-11-04T16:01:43;11.40;99.90
36654;DHT22;22650;49.350;20.898;2022-11-04T16:04:21;11.30;99.90
36654;DHT22;22650;49.350;20.898;2022-11-04T16:07:18;11.30;99.90
36654;DHT22;22650;49.350;20.898;2022-11-04T16:09:53;11.20;99.90
36654;DHT22;22650;49.350;20.898;2022-11-04T16:12:28;11.10;99.90
36654;DHT22;22650;49.350;20.898;2022-11-04T16:15:30;11.10;99.90
36654;DHT22;22650;49.350;20.898;2022-11-04T16:18:05;11.00;99.90
36654;DHT22;22650;49.350;20.898;2022-11-04T16:20:44;10.90;99.90
36654;DHT22;22650;49.350;20.898;2022-11-04T16:23:21;10.90;99.90
36654;DHT22;22650;49.350;20.898;2022-11-04T16:25:56;10.90;99.90
36654;DHT22;22650;49.350;20.898;2022-11-04T16:28:33;10.90;99.90
36654;DHT22;22650;49.350;20.898;2022-11-04T16:31:23;10.90;99.90
36654;DHT22;22650;49.350;20.898;2022-11-04T16:33:57;10.90;99.90
36654;DHT22;22650;49.350;20.898;2022-11-04T16:36:31;10.80;99.90
36654;DHT22;22650;49.350;20.898;2022-11-04T16:39:07;10.80;99.90
36654;DHT22;22650;49.350;20.898;2022-11-04T16:41:41;10.80;99.90
36654;DHT22;22650;49.350;20.898;2022-11-04T16:44:17;10.70;99.90
36654;DHT22;22650;49.350;20.898;2022-11-04T16:46:53;10.70;99.90
36654;DHT22;22650;49.350;20.898;2022-11-04T16:49:27;10.70;99.90
36654;DHT22;22650;49.350;20.898;2022-11-04T16:52:03;10.70;99.90
36654;DHT22;22650;49.350;20.898;2022-11-04T16:54:38;10.60;99.90
36654;DHT22;22650;49.350;20.898;2022-11-04T16:57:13;10.60;99.90